sensor_id;sensor_type;location;lat;lon;timestamp;temperature;humidity
4215;DHT22;2121;48.062;7.850;2022-08-01T00:00:40;19.30;91.70
4215;DHT22;2121;48.062;7.850;2022-08-01T00:03:05;19.20;92.30
4215;DHT22;2121;48.062;7.850;2022-08-01T00:05:31;19.20;92.90
4215;DHT22;2121;48.062;7.850;2022-08-01T00:07:57;19.00;93.10
4215;DHT22;2121;48.062;7.850;2022-08-01T00:10:23;19.10;93.50
4215;DHT22;2121;48.062;7.850;2022-08-01T00:12:49;19.00;93.80
4215;DHT22;2121;48.062;7.850;2022-08-01T00:15:17;19.00;94.20
4215;DHT22;2121;48.062;7.850;2022-08-01T00:17:43;18.90;94.30
4215;DHT22;2121;48.062;7.850;2022-08-01T00:20:12;19.00;94.90
4215;DHT22;2121;48.062;7.850;2022-08-01T00:22:39;19.00;94.80
4215;DHT22;2121;48.062;7.850;2022-08-01T00:25:06;19.00;95.20
4215;DHT22;2121;48.062;7.850;2022-08-01T00:27:32;18.90;95.70
4215;DHT22;2121;48.062;7.850;2022-08-01T00:29:58;18.80;96.10
4215;DHT22;2121;48.062;7.850;2022-08-01T00:32:24;18.60;96.70
4215;DHT22;2121;48.062;7.850;2022-08-01T00:34:50;18.60;97.30
4215;DHT22;2121;48.062;7.850;2022-08-01T00:37:16;18.50;98.00
4215;DHT22;2121;48.062;7.850;2022-08-01T00:39:42;18.50;98.60
4215;DHT22;2121;48.062;7.850;2022-08-01T00:42:10;18.40;99.20
4215;DHT22;2121;48.062;7.850;2022-08-01T00:44:37;18.30;99.40
4215;DHT22;2121;48.062;7.850;2022-08-01T00:47:04;18.30;99.90
4215;DHT22;2121;48.062;7.850;2022-08-01T00:49:30;18.40;99.90
4215;DHT22;2121;48.062;7.850;2022-08-01T00:51:56;18.40;99.90
4215;DHT22;2121;48.062;7.850;2022-08-01T00:54:25;18.40;99.90
4215;DHT22;2121;48.062;7.850;2022-08-01T00:56:51;18.30;99.90
4215;DHT22;2121;48.062;7.850;2022-08-01T00:59:18;18.20;99.90
4215;DHT22;2121;48.062;7.850;2022-08-01T01:01:46;18.20;99.90
4215;DHT22;2121;48.062;7.850;2022-08-01T01:04:12;18.10;99.90
4215;DHT22;2121;48.062;7.850;2022-08-01T01:09:33;18.10;99.90
4215;DHT22;2121;48.062;7.850;2022-08-01T01:12:24;18.10;99.90
4215;DHT22;2121;48.062;7.850;2022-08-01T01:15:06;18.10;99.90
4215;DHT22;2121;48.062;7.850;2022-08-01T01:17:45;18.10;99.90
4215;DHT22;2121;48.062;7.850;2022-08-01T01:20:14;18.00;99.90
4215;DHT22;2121;48.062;7.850;2022-08-01T01:31:00;17.90;99.90
4215;DHT22;2121;48.062;7.850;2022-08-01T01:33:27;18.00;99.90
4215;DHT22;2121;48.062;7.850;2022-08-01T01:36:05;17.90;99.90
4215;DHT22;2121;48.062;7.850;2022-08-01T01:38:38;17.90;99.90
4215;DHT22;2121;48.062;7.850;2022-08-01T01:41:11;17.80;99.90
4215;DHT22;2121;48.062;7.850;2022-08-01T01:43:39;17.70;99.90
4215;DHT22;2121;48.062;7.850;2022-08-01T01:46:07;17.70;99.90
4215;DHT22;2121;48.062;7.850;2022-08-01T01:48:35;17.60;99.90
4215;DHT22;2121;48.062;7.850;2022-08-01T01:51:03;17.50;99.90
4215;DHT22;2121;48.062;7.850;2022-08-01T01:53:32;17.40;99.90
4215;DHT22;2121;48.062;7.850;2022-08-01T01:56:01;17.40;99.90
4215;DHT22;2121;48.062;7.850;2022-08-01T01:58:30;17.40;99.90
4215;DHT22;2121;48.062;7.850;2022-08-01T02:00:58;17.40;99.90
4215;DHT22;2121;48.062;7.850;2022-08-01T02:03:26;17.50;99.90
4215;DHT22;2121;48.062;7.850;2022-08-01T02:05:54;17.50;99.90
4215;DHT22;2121;48.062;7.850;2022-08-01T02:08:22;17.60;99.90
4215;DHT22;2121;48.062;7.850;2022-08-01T02:10:51;17.70;99.90
4215;DHT22;2121;48.062;7.850;2022-08-01T02:13:38;17.70;99.90
4215;DHT22;2121;48.062;7.850;2022-08-01T02:16:05;17.60;99.90
4215;DHT22;2121;48.062;7.850;2022-08-01T02:18:33;17.60;99.90
4215;DHT22;2121;48.062;7.850;2022-08-01T02:21:00;17.60;99.90
4215;DHT22;2121;48.062;7.850;2022-08-01T02:23:32;17.60;99.90
4215;DHT22;2121;48.062;7.850;2022-08-01T02:26:00;17.60;99.90
4215;DHT22;2121;48.062;7.850;2022-08-01T02:28:36;17.60;99.90
4215;DHT22;2121;48.062;7.850;2022-08-01T02:31:09;17.50;99.90
4215;DHT22;2121;48.062;7.850;2022-08-01T02:33:44;17.60;99.90
4215;DHT22;2121;48.062;7.850;2022-08-01T02:36:12;17.60;99.90
4215;DHT22;2121;48.062;7.850;2022-08-01T02:38:44;17.60;99.90
4215;DHT22;2121;48.062;7.850;2022-08-01T02:41:14;17.60;99.90
4215;DHT22;2121;48.062;7.850;2022-08-01T02:43:47;17.60;99.90
4215;DHT22;2121;48.062;7.850;2022-08-01T02:46:35;17.60;99.90
4215;DHT22;2121;48.062;7.850;2022-08-01T02:49:04;17.60;99.90
4215;DHT22;2121;48.062;7.850;2022-08-01T02:51:33;17.60;99.90
4215;DHT22;2121;48.062;7.850;2022-08-01T02:54:02;17.50;99.90
4215;DHT22;2121;48.062;7.850;2022-08-01T02:56:30;17.50;99.90
4215;DHT22;2121;48.062;7.850;2022-08-01T02:59:05;17.50;99.90
4215;DHT22;2121;48.062;7.850;2022-08-01T03:01:34;17.40;99.90
4215;DHT22;2121;48.062;7.850;2022-08-01T03:04:03;17.40;99.90
4215;DHT22;2121;48.062;7.850;2022-08-01T03:06:31;17.30;99.90
4215;DHT22;2121;48.062;7.850;2022-08-01T03:09:00;17.30;99.90
4215;DHT22;2121;48.062;7.850;2022-08-01T03:11:29;17.30;99.90
4215;DHT22;2121;48.062;7.850;2022-08-01T03:13:59;17.40;99.90
4215;DHT22;2121;48.062;7.850;2022-08-01T03:16:28;17.40;99.90
4215;DHT22;2121;48.062;7.850;2022-08-01T03:18:57;17.40;99.90
4215;DHT22;2121;48.062;7.850;2022-08-01T03:21:25;17.30;99.90
4215;DHT22;2121;48.062;7.850;2022-08-01T03:23:53;17.30;99.90
4215;DHT22;2121;48.062;7.850;2022-08-01T03:26:26;17.20;99.90
4215;DHT22;2121;48.062;7.850;2022-08-01T03:28:55;17.10;99.90
4215;DHT22;2121;48.062;7.850;2022-08-01T03:31:24;17.10;99.90
4215;DHT22;2121;48.062;7.850;2022-08-01T03:33:51;17.00;99.90
4215;DHT22;2121;48.062;7.850;2022-08-01T03:36:21;17.00;99.90
4215;DHT22;2121;48.062;7.850;2022-08-01T03:38:50;16.90;99.90
4215;DHT22;2121;48.062;7.850;2022-08-01T03:41:21;16.80;99.90
4215;DHT22;2121;48.062;7.850;2022-08-01T03:44:17;16.70;99.90
4215;DHT22;2121;48.062;7.850;2022-08-01T03:46:56;16.70;99.90
4215;DHT22;2121;48.062;7.850;2022-08-01T03:49:30;16.80;99.90
4215;DHT22;2121;48.062;7.850;2022-08-01T03:52:00;16.80;99.90
4215;DHT22;2121;48.062;7.850;2022-08-01T03:54:32;16.80;99.90
4215;DHT22;2121;48.062;7.850;2022-08-01T03:57:00;16.80;99.90
4215;DHT22;2121;48.062;7.850;2022-08-01T03:59:29;16.80;99.90
4215;DHT22;2121;48.062;7.850;2022-08-01T04:01:55;16.70;99.90
4215;DHT22;2121;48.062;7.850;2022-08-01T04:04:22;16.70;99.90
4215;DHT22;2121;48.062;7.850;2022-08-01T04:06:48;16.60;99.90
4215;DHT22;2121;48.062;7.850;2022-08-01T04:09:19;16.50;99.90
4215;DHT22;2121;48.062;7.850;2022-08-01T04:11:47;16.50;99.90
4215;DHT22;2121;48.062;7.850;2022-08-01T04:14:14;16.50;99.90
4215;DHT22;2121;48.062;7.850;2022-08-01T04:16:40;16.50;99.90
4215;DHT22;2121;48.062;7.850;2022-08-01T04:19:06;16.60;99.90
4215;DHT22;2121;48.062;7.850;2022-08-01T04:21:34;16.60;99.90
4215;DHT22;2121;48.062;7.850;2022-08-01T04:24:07;16.60;99.90
4215;DHT22;2121;48.062;7.850;2022-08-01T04:26:40;16.60;99.90
4215;DHT22;2121;48.062;7.850;2022-08-01T04:29:08;16.50;99.90
4215;DHT22;2121;48.062;7.850;2022-08-01T04:31:36;16.50;99.90
4215;DHT22;2121;48.062;7.850;2022-08-01T04:34:04;16.40;99.90
4215;DHT22;2121;48.062;7.850;2022-08-01T04:36:33;16.50;99.90
4215;DHT22;2121;48.062;7.850;2022-08-01T04:39:02;16.60;99.90
4215;DHT22;2121;48.062;7.850;2022-08-01T04:41:30;16.70;99.90
4215;DHT22;2121;48.062;7.850;2022-08-01T04:43:57;16.70;99.90
4215;DHT22;2121;48.062;7.850;2022-08-01T04:46:28;16.60;99.90
4215;DHT22;2121;48.062;7.850;2022-08-01T04:48:56;16.70;99.90
4215;DHT22;2121;48.062;7.850;2022-08-01T04:51:21;16.80;99.90
4215;DHT22;2121;48.062;7.850;2022-08-01T04:53:48;16.80;99.90
4215;DHT22;2121;48.062;7.850;2022-08-01T04:56:16;16.90;99.90
4215;DHT22;2121;48.062;7.850;2022-08-01T04:58:43;17.00;99.90
4215;DHT22;2121;48.062;7.850;2022-08-01T05:01:10;17.10;99.90
4215;DHT22;2121;48.062;7.850;2022-08-01T05:03:37;17.10;99.90
4215;DHT22;2121;48.062;7.850;2022-08-01T05:06:02;17.20;99.90
4215;DHT22;2121;48.062;7.850;2022-08-01T05:08:28;17.30;99.90
4215;DHT22;2121;48.062;7.850;2022-08-01T05:10:55;17.30;99.90
4215;DHT22;2121;48.062;7.850;2022-08-01T05:13:21;17.50;99.90
4215;DHT22;2121;48.062;7.850;2022-08-01T05:15:46;17.60;99.90
4215;DHT22;2121;48.062;7.850;2022-08-01T05:18:12;17.70;99.90
4215;DHT22;2121;48.062;7.850;2022-08-01T05:20:38;17.80;99.90
4215;DHT22;2121;48.062;7.850;2022-08-01T05:23:05;17.90;99.90
4215;DHT22;2121;48.062;7.850;2022-08-01T05:25:30;18.00;99.90
4215;DHT22;2121;48.062;7.850;2022-08-01T05:27:56;18.20;99.90
4215;DHT22;2121;48.062;7.850;2022-08-01T05:30:22;18.40;99.90
4215;DHT22;2121;48.062;7.850;2022-08-01T05:32:48;18.60;99.90
4215;DHT22;2121;48.062;7.850;2022-08-01T05:35:14;18.70;99.90
4215;DHT22;2121;48.062;7.850;2022-08-01T05:37:39;18.80;99.90
4215;DHT22;2121;48.062;7.850;2022-08-01T05:40:05;18.90;99.90
4215;DHT22;2121;48.062;7.850;2022-08-01T05:42:32;19.10;99.90
4215;DHT22;2121;48.062;7.850;2022-08-01T05:44:57;19.30;99.90
4215;DHT22;2121;48.062;7.850;2022-08-01T05:47:23;19.50;99.90
4215;DHT22;2121;48.062;7.850;2022-08-01T05:49:49;19.60;99.90
4215;DHT22;2121;48.062;7.850;2022-08-01T05:52:15;19.80;99.90
4215;DHT22;2121;48.062;7.850;2022-08-01T05:54:41;20.00;99.90
4215;DHT22;2121;48.062;7.850;2022-08-01T05:57:06;20.20;99.90
4215;DHT22;2121;48.062;7.850;2022-08-01T05:59:32;20.30;99.90
4215;DHT22;2121;48.062;7.850;2022-08-01T06:01:58;20.60;99.90
4215;DHT22;2121;48.062;7.850;2022-08-01T06:04:24;20.70;99.90
4215;DHT22;2121;48.062;7.850;2022-08-01T06:06:50;21.00;99.90
4215;DHT22;2121;48.062;7.850;2022-08-01T06:09:15;21.20;99.90
4215;DHT22;2121;48.062;7.850;2022-08-01T06:11:41;21.20;99.90
4215;DHT22;2121;48.062;7.850;2022-08-01T06:14:07;21.50;99.90
4215;DHT22;2121;48.062;7.850;2022-08-01T06:16:33;21.70;99.90
4215;DHT22;2121;48.062;7.850;2022-08-01T06:18:59;21.80;99.70
4215;DHT22;2121;48.062;7.850;2022-08-01T06:21:24;21.90;99.10
4215;DHT22;2121;48.062;7.850;2022-08-01T06:23:50;22.10;98.90
4215;DHT22;2121;48.062;7.850;2022-08-01T06:26:19;22.30;97.90
4215;DHT22;2121;48.062;7.850;2022-08-01T06:28:45;22.40;97.70
4215;DHT22;2121;48.062;7.850;2022-08-01T06:31:11;22.60;96.60
4215;DHT22;2121;48.062;7.850;2022-08-01T06:33:38;22.60;96.40
4215;DHT22;2121;48.062;7.850;2022-08-01T06:36:04;22.70;96.20
4215;DHT22;2121;48.062;7.850;2022-08-01T06:38:29;22.80;96.60
4215;DHT22;2121;48.062;7.850;2022-08-01T06:40:55;22.80;96.80
4215;DHT22;2121;48.062;7.850;2022-08-01T06:43:21;22.70;96.90
4215;DHT22;2121;48.062;7.850;2022-08-01T06:45:47;22.80;96.70
4215;DHT22;2121;48.062;7.850;2022-08-01T06:48:14;22.80;96.30
4215;DHT22;2121;48.062;7.850;2022-08-01T06:50:39;22.70;96.60
4215;DHT22;2121;48.062;7.850;2022-08-01T06:53:05;22.70;96.30
4215;DHT22;2121;48.062;7.850;2022-08-01T06:55:31;22.70;96.30
4215;DHT22;2121;48.062;7.850;2022-08-01T06:57:57;22.70;96.30
4215;DHT22;2121;48.062;7.850;2022-08-01T07:00:24;22.90;96.20
4215;DHT22;2121;48.062;7.850;2022-08-01T07:02:51;22.90;95.60
4215;DHT22;2121;48.062;7.850;2022-08-01T07:05:18;23.00;96.30
4215;DHT22;2121;48.062;7.850;2022-08-01T07:07:44;23.10;95.80
4215;DHT22;2121;48.062;7.850;2022-08-01T07:10:10;23.00;95.60
4215;DHT22;2121;48.062;7.850;2022-08-01T07:12:36;23.20;95.50
4215;DHT22;2121;48.062;7.850;2022-08-01T07:15:10;23.30;95.40
4215;DHT22;2121;48.062;7.850;2022-08-01T07:17:40;23.40;95.40
4215;DHT22;2121;48.062;7.850;2022-08-01T07:20:11;23.50;95.30
4215;DHT22;2121;48.062;7.850;2022-08-01T07:22:38;23.50;95.30
4215;DHT22;2121;48.062;7.850;2022-08-01T07:25:05;23.50;94.70
4215;DHT22;2121;48.062;7.850;2022-08-01T07:27:32;23.50;94.80
4215;DHT22;2121;48.062;7.850;2022-08-01T07:29:58;23.40;94.80
4215;DHT22;2121;48.062;7.850;2022-08-01T07:32:24;23.40;94.70
4215;DHT22;2121;48.062;7.850;2022-08-01T07:34:50;23.40;94.50
4215;DHT22;2121;48.062;7.850;2022-08-01T07:37:16;23.60;94.40
4215;DHT22;2121;48.062;7.850;2022-08-01T07:39:42;23.70;94.00
4215;DHT22;2121;48.062;7.850;2022-08-01T07:42:08;23.90;93.80
4215;DHT22;2121;48.062;7.850;2022-08-01T07:44:35;24.00;93.80
4215;DHT22;2121;48.062;7.850;2022-08-01T07:47:01;23.90;93.50
4215;DHT22;2121;48.062;7.850;2022-08-01T07:49:27;24.00;93.40
4215;DHT22;2121;48.062;7.850;2022-08-01T07:51:53;24.00;93.50
4215;DHT22;2121;48.062;7.850;2022-08-01T07:54:19;24.20;93.20
4215;DHT22;2121;48.062;7.850;2022-08-01T07:56:45;24.50;93.20
4215;DHT22;2121;48.062;7.850;2022-08-01T07:59:11;24.60;93.00
4215;DHT22;2121;48.062;7.850;2022-08-01T08:01:36;24.70;92.30
4215;DHT22;2121;48.062;7.850;2022-08-01T08:04:02;24.80;91.90
4215;DHT22;2121;48.062;7.850;2022-08-01T08:06:28;24.60;91.90
4215;DHT22;2121;48.062;7.850;2022-08-01T08:08:54;24.70;91.40
4215;DHT22;2121;48.062;7.850;2022-08-01T08:11:19;24.80;91.50
4215;DHT22;2121;48.062;7.850;2022-08-01T08:13:45;24.80;91.40
4215;DHT22;2121;48.062;7.850;2022-08-01T08:16:11;25.00;91.20
4215;DHT22;2121;48.062;7.850;2022-08-01T08:18:37;25.30;91.20
4215;DHT22;2121;48.062;7.850;2022-08-01T08:21:03;25.50;90.90
4215;DHT22;2121;48.062;7.850;2022-08-01T08:23:29;25.50;90.90
4215;DHT22;2121;48.062;7.850;2022-08-01T08:26:13;25.50;90.70
4215;DHT22;2121;48.062;7.850;2022-08-01T08:28:39;25.60;90.50
4215;DHT22;2121;48.062;7.850;2022-08-01T08:31:05;25.80;90.10
4215;DHT22;2121;48.062;7.850;2022-08-01T08:33:31;25.90;90.00
4215;DHT22;2121;48.062;7.850;2022-08-01T08:35:56;25.90;89.90
4215;DHT22;2121;48.062;7.850;2022-08-01T08:38:22;25.90;89.40
4215;DHT22;2121;48.062;7.850;2022-08-01T08:40:51;25.90;89.00
4215;DHT22;2121;48.062;7.850;2022-08-01T08:43:18;25.70;88.30
4215;DHT22;2121;48.062;7.850;2022-08-01T08:45:45;25.70;88.80
4215;DHT22;2121;48.062;7.850;2022-08-01T08:48:12;25.90;87.70
4215;DHT22;2121;48.062;7.850;2022-08-01T08:50:41;25.90;86.30
4215;DHT22;2121;48.062;7.850;2022-08-01T08:53:09;26.00;86.00
4215;DHT22;2121;48.062;7.850;2022-08-01T08:55:36;26.30;85.60
4215;DHT22;2121;48.062;7.850;2022-08-01T08:58:03;26.30;85.90
4215;DHT22;2121;48.062;7.850;2022-08-01T09:00:34;26.30;85.40
4215;DHT22;2121;48.062;7.850;2022-08-01T09:03:01;26.60;85.00
4215;DHT22;2121;48.062;7.850;2022-08-01T09:05:27;26.80;83.70
4215;DHT22;2121;48.062;7.850;2022-08-01T09:07:53;26.80;84.60
4215;DHT22;2121;48.062;7.850;2022-08-01T09:10:19;26.80;84.10
4215;DHT22;2121;48.062;7.850;2022-08-01T09:13:05;26.90;83.60
4215;DHT22;2121;48.062;7.850;2022-08-01T09:15:50;27.00;83.40
4215;DHT22;2121;48.062;7.850;2022-08-01T09:18:38;27.10;82.80
4215;DHT22;2121;48.062;7.850;2022-08-01T09:23:37;27.50;81.80
4215;DHT22;2121;48.062;7.850;2022-08-01T09:26:17;27.50;82.90
4215;DHT22;2121;48.062;7.850;2022-08-01T09:28:45;28.00;82.80
4215;DHT22;2121;48.062;7.850;2022-08-01T09:31:16;28.20;78.50
4215;DHT22;2121;48.062;7.850;2022-08-01T09:33:55;28.30;77.20
4215;DHT22;2121;48.062;7.850;2022-08-01T09:36:25;28.10;76.10
4215;DHT22;2121;48.062;7.850;2022-08-01T09:38:54;28.10;75.80
4215;DHT22;2121;48.062;7.850;2022-08-01T09:41:32;28.30;76.50
4215;DHT22;2121;48.062;7.850;2022-08-01T09:43:57;28.50;76.50
4215;DHT22;2121;48.062;7.850;2022-08-01T09:46:24;28.50;75.80
4215;DHT22;2121;48.062;7.850;2022-08-01T09:49:04;28.60;75.60
4215;DHT22;2121;48.062;7.850;2022-08-01T09:51:34;29.20;74.80
4215;DHT22;2121;48.062;7.850;2022-08-01T09:54:02;29.30;73.60
4215;DHT22;2121;48.062;7.850;2022-08-01T09:56:40;29.20;73.90
4215;DHT22;2121;48.062;7.850;2022-08-01T09:59:11;29.20;74.10
4215;DHT22;2121;48.062;7.850;2022-08-01T10:01:47;29.50;74.10
4215;DHT22;2121;48.062;7.850;2022-08-01T10:04:19;29.40;73.90
4215;DHT22;2121;48.062;7.850;2022-08-01T10:06:48;29.30;75.10
4215;DHT22;2121;48.062;7.850;2022-08-01T10:09:31;29.60;74.80
4215;DHT22;2121;48.062;7.850;2022-08-01T10:12:02;29.90;73.00
4215;DHT22;2121;48.062;7.850;2022-08-01T10:14:29;29.80;74.20
4215;DHT22;2121;48.062;7.850;2022-08-01T10:16:59;29.90;74.10
4215;DHT22;2121;48.062;7.850;2022-08-01T10:19:27;30.40;72.80
4215;DHT22;2121;48.062;7.850;2022-08-01T10:21:56;30.90;72.80
4215;DHT22;2121;48.062;7.850;2022-08-01T10:24:26;31.30;70.50
4215;DHT22;2121;48.062;7.850;2022-08-01T10:26:58;31.70;71.70
4215;DHT22;2121;48.062;7.850;2022-08-01T10:29:35;31.50;68.50
4215;DHT22;2121;48.062;7.850;2022-08-01T10:32:04;30.70;70.80
4215;DHT22;2121;48.062;7.850;2022-08-01T10:34:31;30.90;70.60
4215;DHT22;2121;48.062;7.850;2022-08-01T10:36:59;31.30;68.70
4215;DHT22;2121;48.062;7.850;2022-08-01T10:39:26;31.10;68.40
4215;DHT22;2121;48.062;7.850;2022-08-01T10:41:55;30.40;69.20
4215;DHT22;2121;48.062;7.850;2022-08-01T10:44:23;29.90;70.30
4215;DHT22;2121;48.062;7.850;2022-08-01T10:46:54;29.80;71.40
4215;DHT22;2121;48.062;7.850;2022-08-01T10:49:27;29.80;71.30
4215;DHT22;2121;48.062;7.850;2022-08-01T10:51:54;29.80;70.80
4215;DHT22;2121;48.062;7.850;2022-08-01T10:54:24;29.80;70.70
4215;DHT22;2121;48.062;7.850;2022-08-01T10:56:51;30.00;69.60
4215;DHT22;2121;48.062;7.850;2022-08-01T10:59:26;30.10;70.50
4215;DHT22;2121;48.062;7.850;2022-08-01T11:02:01;30.10;68.30
4215;DHT22;2121;48.062;7.850;2022-08-01T11:07:06;31.10;67.40
4215;DHT22;2121;48.062;7.850;2022-08-01T11:09:42;30.80;68.60
4215;DHT22;2121;48.062;7.850;2022-08-01T11:12:13;30.60;67.70
4215;DHT22;2121;48.062;7.850;2022-08-01T11:17:45;31.60;66.10
4215;DHT22;2121;48.062;7.850;2022-08-01T11:20:31;32.10;67.10
4215;DHT22;2121;48.062;7.850;2022-08-01T11:33:16;31.70;67.70
4215;DHT22;2121;48.062;7.850;2022-08-01T11:39:24;32.70;65.00
4215;DHT22;2121;48.062;7.850;2022-08-01T11:41:29;32.90;64.00
4215;DHT22;2121;48.062;7.850;2022-08-01T11:44:04;33.20;62.90
4215;DHT22;2121;48.062;7.850;2022-08-01T11:52:15;32.70;63.90
4215;DHT22;2121;48.062;7.850;2022-08-01T11:57:28;31.30;66.40
4215;DHT22;2121;48.062;7.850;2022-08-01T12:00:11;31.60;66.40
4215;DHT22;2121;48.062;7.850;2022-08-01T12:02:41;31.90;65.90
4215;DHT22;2121;48.062;7.850;2022-08-01T12:05:08;31.70;66.40
4215;DHT22;2121;48.062;7.850;2022-08-01T12:07:37;32.40;65.40
4215;DHT22;2121;48.062;7.850;2022-08-01T12:10:07;33.60;64.00
4215;DHT22;2121;48.062;7.850;2022-08-01T12:12:42;34.40;62.60
4215;DHT22;2121;48.062;7.850;2022-08-01T12:15:15;35.00;61.60
4215;DHT22;2121;48.062;7.850;2022-08-01T12:17:47;35.00;61.10
4215;DHT22;2121;48.062;7.850;2022-08-01T12:20:19;35.40;61.70
4215;DHT22;2121;48.062;7.850;2022-08-01T12:22:46;36.10;59.50
4215;DHT22;2121;48.062;7.850;2022-08-01T12:25:14;36.20;59.50
4215;DHT22;2121;48.062;7.850;2022-08-01T12:27:43;36.40;59.90
4215;DHT22;2121;48.062;7.850;2022-08-01T12:30:14;37.90;57.90
4215;DHT22;2121;48.062;7.850;2022-08-01T12:32:42;37.50;59.10
4215;DHT22;2121;48.062;7.850;2022-08-01T12:35:12;37.40;56.50
4215;DHT22;2121;48.062;7.850;2022-08-01T12:37:47;36.80;58.00
4215;DHT22;2121;48.062;7.850;2022-08-01T12:40:23;36.50;57.60
4215;DHT22;2121;48.062;7.850;2022-08-01T12:42:58;34.90;59.60
4215;DHT22;2121;48.062;7.850;2022-08-01T12:45:29;34.00;60.80
4215;DHT22;2121;48.062;7.850;2022-08-01T12:47:57;35.10;61.60
4215;DHT22;2121;48.062;7.850;2022-08-01T12:50:26;35.90;59.70
4215;DHT22;2121;48.062;7.850;2022-08-01T12:52:54;34.80;59.10
4215;DHT22;2121;48.062;7.850;2022-08-01T12:55:22;33.40;62.00
4215;DHT22;2121;48.062;7.850;2022-08-01T12:58:08;33.00;63.10
4215;DHT22;2121;48.062;7.850;2022-08-01T13:00:38;34.90;61.10
4215;DHT22;2121;48.062;7.850;2022-08-01T13:03:09;35.70;59.10
4215;DHT22;2121;48.062;7.850;2022-08-01T13:05:45;36.00;58.40
4215;DHT22;2121;48.062;7.850;2022-08-01T13:08:13;37.40;57.20
4215;DHT22;2121;48.062;7.850;2022-08-01T13:10:46;38.30;56.40
4215;DHT22;2121;48.062;7.850;2022-08-01T13:13:13;38.20;56.50
4215;DHT22;2121;48.062;7.850;2022-08-01T13:15:41;38.00;56.70
4215;DHT22;2121;48.062;7.850;2022-08-01T13:18:28;38.00;56.00
4215;DHT22;2121;48.062;7.850;2022-08-01T13:23:59;42.10;53.20
4215;DHT22;2121;48.062;7.850;2022-08-01T13:26:52;41.30;52.40
4215;DHT22;2121;48.062;7.850;2022-08-01T13:29:31;36.60;56.80
4215;DHT22;2121;48.062;7.850;2022-08-01T13:32:20;34.80;59.30
4215;DHT22;2121;48.062;7.850;2022-08-01T13:34:46;33.70;59.90
4215;DHT22;2121;48.062;7.850;2022-08-01T13:37:12;32.80;61.70
4215;DHT22;2121;48.062;7.850;2022-08-01T13:39:37;32.10;62.20
4215;DHT22;2121;48.062;7.850;2022-08-01T13:42:07;32.80;62.10
4215;DHT22;2121;48.062;7.850;2022-08-01T13:44:33;32.70;62.10
4215;DHT22;2121;48.062;7.850;2022-08-01T13:46:59;32.30;62.40
4215;DHT22;2121;48.062;7.850;2022-08-01T13:49:25;32.60;61.70
4215;DHT22;2121;48.062;7.850;2022-08-01T13:51:51;35.90;60.00
4215;DHT22;2121;48.062;7.850;2022-08-01T13:54:17;38.40;56.00
4215;DHT22;2121;48.062;7.850;2022-08-01T13:56:43;39.80;53.90
4215;DHT22;2121;48.062;7.850;2022-08-01T13:59:09;40.20;53.20
4215;DHT22;2121;48.062;7.850;2022-08-01T14:01:35;39.30;53.50
4215;DHT22;2121;48.062;7.850;2022-08-01T14:04:01;36.30;56.00
4215;DHT22;2121;48.062;7.850;2022-08-01T14:06:28;33.40;59.80
4215;DHT22;2121;48.062;7.850;2022-08-01T14:08:53;32.00;62.20
4215;DHT22;2121;48.062;7.850;2022-08-01T14:11:20;31.60;63.80
4215;DHT22;2121;48.062;7.850;2022-08-01T14:13:45;32.20;62.90
4215;DHT22;2121;48.062;7.850;2022-08-01T14:16:11;33.10;62.60
4215;DHT22;2121;48.062;7.850;2022-08-01T14:18:37;33.30;61.70
4215;DHT22;2121;48.062;7.850;2022-08-01T14:21:03;32.90;61.00
4215;DHT22;2121;48.062;7.850;2022-08-01T14:23:29;32.80;61.10
4215;DHT22;2121;48.062;7.850;2022-08-01T14:25:54;32.60;62.10
4215;DHT22;2121;48.062;7.850;2022-08-01T14:28:20;31.70;62.40
4215;DHT22;2121;48.062;7.850;2022-08-01T14:30:46;31.40;62.80
4215;DHT22;2121;48.062;7.850;2022-08-01T14:33:13;31.10;63.90
4215;DHT22;2121;48.062;7.850;2022-08-01T14:35:40;31.70;62.90
4215;DHT22;2121;48.062;7.850;2022-08-01T14:38:06;32.10;62.20
4215;DHT22;2121;48.062;7.850;2022-08-01T14:40:33;33.40;59.80
4215;DHT22;2121;48.062;7.850;2022-08-01T14:42:59;33.40;59.40
4215;DHT22;2121;48.062;7.850;2022-08-01T14:45:27;32.30;61.60
4215;DHT22;2121;48.062;7.850;2022-08-01T14:47:53;31.20;63.70
4215;DHT22;2121;48.062;7.850;2022-08-01T14:50:19;30.80;64.40
4215;DHT22;2121;48.062;7.850;2022-08-01T14:52:45;30.50;65.00
4215;DHT22;2121;48.062;7.850;2022-08-01T14:55:11;30.20;65.60
4215;DHT22;2121;48.062;7.850;2022-08-01T14:57:38;30.20;65.60
4215;DHT22;2121;48.062;7.850;2022-08-01T15:00:07;30.10;65.90
4215;DHT22;2121;48.062;7.850;2022-08-01T15:02:38;29.90;66.00
4215;DHT22;2121;48.062;7.850;2022-08-01T15:05:05;29.90;66.10
4215;DHT22;2121;48.062;7.850;2022-08-01T15:07:31;30.10;65.70
4215;DHT22;2121;48.062;7.850;2022-08-01T15:09:57;30.80;65.70
4215;DHT22;2121;48.062;7.850;2022-08-01T15:12:23;31.80;63.80
4215;DHT22;2121;48.062;7.850;2022-08-01T15:14:50;31.70;63.30
4215;DHT22;2121;48.062;7.850;2022-08-01T15:17:20;31.50;65.00
4215;DHT22;2121;48.062;7.850;2022-08-01T15:19:48;31.40;63.90
4215;DHT22;2121;48.062;7.850;2022-08-01T15:22:16;30.40;66.20
4215;DHT22;2121;48.062;7.850;2022-08-01T15:24:42;30.20;67.80
4215;DHT22;2121;48.062;7.850;2022-08-01T15:27:09;30.10;67.50
4215;DHT22;2121;48.062;7.850;2022-08-01T15:29:36;30.10;67.80
4215;DHT22;2121;48.062;7.850;2022-08-01T15:32:03;30.50;67.70
4215;DHT22;2121;48.062;7.850;2022-08-01T15:34:30;30.60;68.00
4215;DHT22;2121;48.062;7.850;2022-08-01T15:36:56;30.60;67.10
4215;DHT22;2121;48.062;7.850;2022-08-01T15:39:22;30.90;66.10
4215;DHT22;2121;48.062;7.850;2022-08-01T15:41:49;30.80;67.30
4215;DHT22;2121;48.062;7.850;2022-08-01T15:44:15;30.80;66.50
4215;DHT22;2121;48.062;7.850;2022-08-01T15:46:46;30.60;67.00
4215;DHT22;2121;48.062;7.850;2022-08-01T15:49:12;30.90;66.60
4215;DHT22;2121;48.062;7.850;2022-08-01T15:51:38;30.90;65.90
4215;DHT22;2121;48.062;7.850;2022-08-01T15:54:04;30.70;67.00
4215;DHT22;2121;48.062;7.850;2022-08-01T15:56:34;30.40;68.00
4215;DHT22;2121;48.062;7.850;2022-08-01T15:59:00;30.10;68.00
4215;DHT22;2121;48.062;7.850;2022-08-01T16:01:26;30.10;68.40
4215;DHT22;2121;48.062;7.850;2022-08-01T16:03:53;30.50;67.70
4215;DHT22;2121;48.062;7.850;2022-08-01T16:06:19;29.90;68.30
4215;DHT22;2121;48.062;7.850;2022-08-01T16:08:45;29.60;69.30
4215;DHT22;2121;48.062;7.850;2022-08-01T16:11:11;29.30;69.20
4215;DHT22;2121;48.062;7.850;2022-08-01T16:13:37;29.10;69.80
4215;DHT22;2121;48.062;7.850;2022-08-01T16:16:03;28.90;70.70
4215;DHT22;2121;48.062;7.850;2022-08-01T16:18:30;28.70;70.80
4215;DHT22;2121;48.062;7.850;2022-08-01T16:20:56;28.60;71.60
4215;DHT22;2121;48.062;7.850;2022-08-01T16:23:25;28.50;71.70
4215;DHT22;2121;48.062;7.850;2022-08-01T16:25:51;28.50;71.50
4215;DHT22;2121;48.062;7.850;2022-08-01T16:28:18;28.70;71.50
4215;DHT22;2121;48.062;7.850;2022-08-01T16:30:45;29.00;71.30
4215;DHT22;2121;48.062;7.850;2022-08-01T16:33:11;28.80;71.30
4215;DHT22;2121;48.062;7.850;2022-08-01T16:35:37;28.50;71.50
4215;DHT22;2121;48.062;7.850;2022-08-01T16:38:04;28.60;72.00
4215;DHT22;2121;48.062;7.850;2022-08-01T16:40:31;28.50;72.70
4215;DHT22;2121;48.062;7.850;2022-08-01T16:42:57;28.50;72.50
4215;DHT22;2121;48.062;7.850;2022-08-01T16:45:23;28.40;72.30
4215;DHT22;2121;48.062;7.850;2022-08-01T16:47:48;28.30;72.90
4215;DHT22;2121;48.062;7.850;2022-08-01T16:50:15;28.50;72.60
4215;DHT22;2121;48.062;7.850;2022-08-01T16:52:40;28.70;72.90
4215;DHT22;2121;48.062;7.850;2022-08-01T16:55:06;28.60;72.50